Terminal Aerodrome Forecast
Issued by NWS

Home | Current Version | Previous Version | Text Only | Print | Product List | Glossary On
Versions: 1 2 3 4 5 6 7 8 9 10 11 12 13 14 15
000
FTUS41 KBTV 110543
TAFMPV
TAF
KMPV 110543Z 1106/1206 22007KT P6SM OVC060
     FM110900 VRB03KT P6SM VCSH OVC045
      TEMPO 1109/1111 4SM -SHSN OVC030
     FM111300 30006KT P6SM OVC025
     FM111700 31004KT P6SM SCT030
     FM120300 VRB03KT P6SM BKN110=

USA.gov is the U.S. government's official web portal to all federal, state and local government web resources and services.